Terminal Aerodrome Forecast
Issued by NWS Duluth, MN

Home | Current Version | Previous Version | Text Only | Print | Product List | Glossary On
Versions: 1 2 3 4 5 6 7 8 9 10 11 12 13 14 15 16 17 18 19
000
FTUS43 KDLH 191700
TAFDLH
TAF
KDLH 191722Z 1918/2018 30007G15KT P6SM FEW030
     FM200100 VRB06KT P6SM SKC
     FM201600 27007KT P6SM FEW050=

USA.gov is the U.S. government's official web portal to all federal, state and local government web resources and services.